sensor_id;sensor_type;location;lat;lon;timestamp;P1;durP1;ratioP1;P2;durP2;ratioP2
14903;SDS011;7543;53.148;8.234;2023-11-19T00:01:34;6.17;;;4.43;;
14903;SDS011;7543;53.148;8.234;2023-11-19T00:04:03;8.07;;;5.10;;
14903;SDS011;7543;53.148;8.234;2023-11-19T00:06:32;10.87;;;4.90;;
14903;SDS011;7543;53.148;8.234;2023-11-19T00:09:00;5.87;;;4.87;;
14903;SDS011;7543;53.148;8.234;2023-11-19T00:11:30;7.40;;;5.47;;
14903;SDS011;7543;53.148;8.234;2023-11-19T00:14:00;6.80;;;5.17;;
14903;SDS011;7543;53.148;8.234;2023-11-19T00:16:28;7.73;;;5.30;;
14903;SDS011;7543;53.148;8.234;2023-11-19T00:18:58;7.60;;;5.33;;
14903;SDS011;7543;53.148;8.234;2023-11-19T00:21:27;6.90;;;5.30;;
14903;SDS011;7543;53.148;8.234;2023-11-19T00:23:56;8.07;;;5.20;;
14903;SDS011;7543;53.148;8.234;2023-11-19T00:26:25;6.43;;;5.20;;
14903;SDS011;7543;53.148;8.234;2023-11-19T00:28:53;7.57;;;5.33;;
14903;SDS011;7543;53.148;8.234;2023-11-19T00:31:24;7.17;;;5.40;;
14903;SDS011;7543;53.148;8.234;2023-11-19T00:33:53;7.50;;;5.43;;
14903;SDS011;7543;53.148;8.234;2023-11-19T00:36:21;6.37;;;5.23;;
14903;SDS011;7543;53.148;8.234;2023-11-19T00:38:51;6.73;;;5.23;;
14903;SDS011;7543;53.148;8.234;2023-11-19T00:41:20;6.73;;;4.93;;
14903;SDS011;7543;53.148;8.234;2023-11-19T00:43:49;6.20;;;5.10;;
14903;SDS011;7543;53.148;8.234;2023-11-19T00:46:17;9.60;;;5.40;;
14903;SDS011;7543;53.148;8.234;2023-11-19T00:48:48;5.73;;;4.90;;
14903;SDS011;7543;53.148;8.234;2023-11-19T00:51:16;5.80;;;4.60;;
14903;SDS011;7543;53.148;8.234;2023-11-19T00:53:44;6.97;;;5.67;;
14903;SDS011;7543;53.148;8.234;2023-11-19T00:56:13;5.80;;;4.97;;
14903;SDS011;7543;53.148;8.234;2023-11-19T00:58:41;7.13;;;5.70;;
14903;SDS011;7543;53.148;8.234;2023-11-19T01:01:11;7.27;;;5.37;;
14903;SDS011;7543;53.148;8.234;2023-11-19T01:03:39;7.37;;;5.80;;
14903;SDS011;7543;53.148;8.234;2023-11-19T01:06:09;9.20;;;5.40;;
14903;SDS011;7543;53.148;8.234;2023-11-19T01:08:37;7.10;;;5.30;;
14903;SDS011;7543;53.148;8.234;2023-11-19T01:11:06;6.20;;;5.00;;
14903;SDS011;7543;53.148;8.234;2023-11-19T01:13:36;5.80;;;4.87;;
14903;SDS011;7543;53.148;8.234;2023-11-19T01:16:05;6.50;;;4.43;;
14903;SDS011;7543;53.148;8.234;2023-11-19T01:18:33;5.00;;;4.10;;
14903;SDS011;7543;53.148;8.234;2023-11-19T01:21:02;4.90;;;3.80;;
14903;SDS011;7543;53.148;8.234;2023-11-19T01:23:33;4.07;;;3.53;;
14903;SDS011;7543;53.148;8.234;2023-11-19T01:26:01;4.10;;;3.60;;
14903;SDS011;7543;53.148;8.234;2023-11-19T01:28:29;4.77;;;3.80;;
14903;SDS011;7543;53.148;8.234;2023-11-19T01:30:58;5.57;;;3.80;;
14903;SDS011;7543;53.148;8.234;2023-11-19T01:33:27;5.20;;;4.37;;
14903;SDS011;7543;53.148;8.234;2023-11-19T01:35:55;4.77;;;3.90;;
14903;SDS011;7543;53.148;8.234;2023-11-19T01:38:25;7.00;;;4.80;;
14903;SDS011;7543;53.148;8.234;2023-11-19T01:40:57;5.00;;;4.33;;
14903;SDS011;7543;53.148;8.234;2023-11-19T01:43:34;6.10;;;4.63;;
14903;SDS011;7543;53.148;8.234;2023-11-19T01:46:04;6.50;;;4.97;;
14903;SDS011;7543;53.148;8.234;2023-11-19T01:48:34;6.50;;;4.90;;
14903;SDS011;7543;53.148;8.234;2023-11-19T01:51:03;8.63;;;4.87;;
14903;SDS011;7543;53.148;8.234;2023-11-19T01:53:32;7.73;;;5.10;;
14903;SDS011;7543;53.148;8.234;2023-11-19T01:56:03;5.23;;;4.47;;
14903;SDS011;7543;53.148;8.234;2023-11-19T01:58:33;6.43;;;4.83;;
14903;SDS011;7543;53.148;8.234;2023-11-19T02:01:01;5.43;;;4.60;;
14903;SDS011;7543;53.148;8.234;2023-11-19T02:03:31;5.33;;;4.40;;
14903;SDS011;7543;53.148;8.234;2023-11-19T02:06:00;5.77;;;4.90;;
14903;SDS011;7543;53.148;8.234;2023-11-19T02:08:28;5.13;;;4.20;;
14903;SDS011;7543;53.148;8.234;2023-11-19T02:10:57;5.30;;;4.33;;
14903;SDS011;7543;53.148;8.234;2023-11-19T02:13:28;6.07;;;4.77;;
14903;SDS011;7543;53.148;8.234;2023-11-19T02:15:56;6.27;;;5.07;;
14903;SDS011;7543;53.148;8.234;2023-11-19T02:18:26;7.27;;;4.40;;
14903;SDS011;7543;53.148;8.234;2023-11-19T02:20:55;6.03;;;4.80;;
14903;SDS011;7543;53.148;8.234;2023-11-19T02:23:25;6.80;;;4.60;;
14903;SDS011;7543;53.148;8.234;2023-11-19T02:25:58;6.93;;;4.80;;
14903;SDS011;7543;53.148;8.234;2023-11-19T02:28:31;8.50;;;5.30;;
14903;SDS011;7543;53.148;8.234;2023-11-19T02:31:00;8.53;;;5.17;;
14903;SDS011;7543;53.148;8.234;2023-11-19T02:33:28;7.13;;;5.07;;
14903;SDS011;7543;53.148;8.234;2023-11-19T02:35:57;8.33;;;5.10;;
14903;SDS011;7543;53.148;8.234;2023-11-19T02:38:25;6.10;;;4.67;;
14903;SDS011;7543;53.148;8.234;2023-11-19T02:40:53;6.77;;;5.27;;
14903;SDS011;7543;53.148;8.234;2023-11-19T02:43:22;6.97;;;4.93;;
14903;SDS011;7543;53.148;8.234;2023-11-19T02:45:52;7.90;;;5.20;;
14903;SDS011;7543;53.148;8.234;2023-11-19T02:48:22;8.27;;;5.43;;
14903;SDS011;7543;53.148;8.234;2023-11-19T02:50:50;8.13;;;4.90;;
14903;SDS011;7543;53.148;8.234;2023-11-19T02:53:19;8.10;;;5.40;;
14903;SDS011;7543;53.148;8.234;2023-11-19T02:55:49;6.73;;;4.80;;
14903;SDS011;7543;53.148;8.234;2023-11-19T02:58:17;8.27;;;5.40;;
14903;SDS011;7543;53.148;8.234;2023-11-19T03:00:59;6.10;;;5.17;;
14903;SDS011;7543;53.148;8.234;2023-11-19T03:03:36;7.73;;;5.70;;
14903;SDS011;7543;53.148;8.234;2023-11-19T03:06:07;6.93;;;5.33;;
14903;SDS011;7543;53.148;8.234;2023-11-19T03:08:36;8.33;;;5.17;;
14903;SDS011;7543;53.148;8.234;2023-11-19T03:11:04;8.33;;;4.83;;
14903;SDS011;7543;53.148;8.234;2023-11-19T03:13:32;8.20;;;5.17;;
14903;SDS011;7543;53.148;8.234;2023-11-19T03:16:02;8.60;;;5.30;;
14903;SDS011;7543;53.148;8.234;2023-11-19T03:18:31;7.97;;;4.90;;
14903;SDS011;7543;53.148;8.234;2023-11-19T03:20:59;8.10;;;4.97;;
14903;SDS011;7543;53.148;8.234;2023-11-19T03:23:28;8.20;;;5.57;;
14903;SDS011;7543;53.148;8.234;2023-11-19T03:25:56;11.37;;;4.83;;
14903;SDS011;7543;53.148;8.234;2023-11-19T03:28:25;7.47;;;4.83;;
14903;SDS011;7543;53.148;8.234;2023-11-19T03:30:53;11.53;;;4.87;;
14903;SDS011;7543;53.148;8.234;2023-11-19T03:33:23;6.33;;;4.27;;
14903;SDS011;7543;53.148;8.234;2023-11-19T03:35:52;9.80;;;5.03;;
14903;SDS011;7543;53.148;8.234;2023-11-19T03:38:21;9.03;;;4.50;;
14903;SDS011;7543;53.148;8.234;2023-11-19T03:40:49;9.27;;;4.83;;
14903;SDS011;7543;53.148;8.234;2023-11-19T03:43:17;12.10;;;4.83;;
14903;SDS011;7543;53.148;8.234;2023-11-19T03:45:47;12.47;;;4.60;;
14903;SDS011;7543;53.148;8.234;2023-11-19T03:48:15;10.67;;;5.07;;
14903;SDS011;7543;53.148;8.234;2023-11-19T03:50:45;7.50;;;4.23;;
14903;SDS011;7543;53.148;8.234;2023-11-19T03:53:14;10.20;;;4.87;;
14903;SDS011;7543;53.148;8.234;2023-11-19T03:55:42;8.13;;;4.37;;
14903;SDS011;7543;53.148;8.234;2023-11-19T03:58:11;7.90;;;4.20;;
14903;SDS011;7543;53.148;8.234;2023-11-19T04:00:39;9.00;;;4.00;;
14903;SDS011;7543;53.148;8.234;2023-11-19T04:03:08;8.30;;;3.93;;
14903;SDS011;7543;53.148;8.234;2023-11-19T04:05:36;9.73;;;3.73;;
14903;SDS011;7543;53.148;8.234;2023-11-19T04:08:06;11.70;;;4.60;;
14903;SDS011;7543;53.148;8.234;2023-11-19T04:10:34;15.73;;;4.37;;
14903;SDS011;7543;53.148;8.234;2023-11-19T04:13:03;12.00;;;4.30;;
14903;SDS011;7543;53.148;8.234;2023-11-19T04:15:31;10.97;;;3.70;;
14903;SDS011;7543;53.148;8.234;2023-11-19T04:17:59;10.40;;;4.00;;
14903;SDS011;7543;53.148;8.234;2023-11-19T04:20:28;10.47;;;3.80;;
14903;SDS011;7543;53.148;8.234;2023-11-19T04:22:58;10.93;;;4.13;;
14903;SDS011;7543;53.148;8.234;2023-11-19T04:25:28;9.30;;;3.30;;
14903;SDS011;7543;53.148;8.234;2023-11-19T04:27:57;10.80;;;3.83;;
14903;SDS011;7543;53.148;8.234;2023-11-19T04:30:25;10.17;;;3.67;;
14903;SDS011;7543;53.148;8.234;2023-11-19T04:32:54;8.97;;;3.53;;
14903;SDS011;7543;53.148;8.234;2023-11-19T04:35:22;9.90;;;3.27;;
14903;SDS011;7543;53.148;8.234;2023-11-19T04:37:52;14.23;;;4.00;;
14903;SDS011;7543;53.148;8.234;2023-11-19T04:40:24;10.27;;;3.40;;
14903;SDS011;7543;53.148;8.234;2023-11-19T04:42:54;14.00;;;4.13;;
14903;SDS011;7543;53.148;8.234;2023-11-19T04:45:22;12.37;;;3.50;;
14903;SDS011;7543;53.148;8.234;2023-11-19T04:47:50;18.13;;;3.80;;
14903;SDS011;7543;53.148;8.234;2023-11-19T04:50:19;8.50;;;3.13;;
14903;SDS011;7543;53.148;8.234;2023-11-19T04:52:47;14.73;;;3.47;;
14903;SDS011;7543;53.148;8.234;2023-11-19T04:55:15;11.63;;;3.50;;
14903;SDS011;7543;53.148;8.234;2023-11-19T04:57:44;9.20;;;3.30;;
14903;SDS011;7543;53.148;8.234;2023-11-19T05:00:14;9.57;;;3.27;;
14903;SDS011;7543;53.148;8.234;2023-11-19T05:02:43;10.63;;;3.30;;
14903;SDS011;7543;53.148;8.234;2023-11-19T05:05:12;16.40;;;3.23;;
14903;SDS011;7543;53.148;8.234;2023-11-19T05:07:40;12.60;;;3.00;;
14903;SDS011;7543;53.148;8.234;2023-11-19T05:10:08;13.53;;;3.70;;
14903;SDS011;7543;53.148;8.234;2023-11-19T05:12:37;12.50;;;2.57;;
14903;SDS011;7543;53.148;8.234;2023-11-19T05:15:06;16.20;;;3.37;;
14903;SDS011;7543;53.148;8.234;2023-11-19T05:17:36;8.40;;;2.83;;
14903;SDS011;7543;53.148;8.234;2023-11-19T05:20:05;10.17;;;3.13;;
14903;SDS011;7543;53.148;8.234;2023-11-19T05:22:39;14.20;;;2.40;;
14903;SDS011;7543;53.148;8.234;2023-11-19T05:25:08;12.40;;;3.13;;
14903;SDS011;7543;53.148;8.234;2023-11-19T05:27:37;12.33;;;3.27;;
14903;SDS011;7543;53.148;8.234;2023-11-19T05:30:06;10.37;;;2.80;;
14903;SDS011;7543;53.148;8.234;2023-11-19T05:32:37;8.00;;;2.40;;
14903;SDS011;7543;53.148;8.234;2023-11-19T05:35:05;8.87;;;2.97;;
14903;SDS011;7543;53.148;8.234;2023-11-19T05:37:35;10.63;;;2.90;;
14903;SDS011;7543;53.148;8.234;2023-11-19T05:40:03;14.73;;;2.63;;
14903;SDS011;7543;53.148;8.234;2023-11-19T05:42:34;11.37;;;2.93;;
14903;SDS011;7543;53.148;8.234;2023-11-19T05:45:05;12.17;;;2.27;;
14903;SDS011;7543;53.148;8.234;2023-11-19T05:47:37;11.33;;;2.53;;
14903;SDS011;7543;53.148;8.234;2023-11-19T05:50:05;13.77;;;2.77;;
14903;SDS011;7543;53.148;8.234;2023-11-19T05:52:35;16.07;;;3.23;;
14903;SDS011;7543;53.148;8.234;2023-11-19T05:55:04;15.80;;;2.83;;
14903;SDS011;7543;53.148;8.234;2023-11-19T05:57:36;16.20;;;2.80;;
14903;SDS011;7543;53.148;8.234;2023-11-19T06:00:05;18.33;;;3.00;;
14903;SDS011;7543;53.148;8.234;2023-11-19T06:02:41;14.27;;;3.23;;
14903;SDS011;7543;53.148;8.234;2023-11-19T06:05:09;15.53;;;3.60;;
14903;SDS011;7543;53.148;8.234;2023-11-19T06:07:38;14.87;;;3.10;;
14903;SDS011;7543;53.148;8.234;2023-11-19T06:10:08;12.80;;;3.00;;
14903;SDS011;7543;53.148;8.234;2023-11-19T06:12:37;17.90;;;3.17;;
14903;SDS011;7543;53.148;8.234;2023-11-19T06:15:08;12.37;;;2.70;;
14903;SDS011;7543;53.148;8.234;2023-11-19T06:17:37;11.53;;;2.80;;
14903;SDS011;7543;53.148;8.234;2023-11-19T06:20:07;16.47;;;3.00;;
14903;SDS011;7543;53.148;8.234;2023-11-19T06:22:38;13.87;;;3.20;;
14903;SDS011;7543;53.148;8.234;2023-11-19T06:25:07;23.50;;;3.63;;
14903;SDS011;7543;53.148;8.234;2023-11-19T06:27:36;14.07;;;2.93;;
14903;SDS011;7543;53.148;8.234;2023-11-19T06:30:04;20.17;;;3.43;;
14903;SDS011;7543;53.148;8.234;2023-11-19T06:32:34;20.77;;;4.07;;
14903;SDS011;7543;53.148;8.234;2023-11-19T06:35:02;17.97;;;3.70;;
14903;SDS011;7543;53.148;8.234;2023-11-19T06:37:33;23.23;;;3.80;;
14903;SDS011;7543;53.148;8.234;2023-11-19T06:40:02;17.30;;;3.53;;
14903;SDS011;7543;53.148;8.234;2023-11-19T06:42:31;15.47;;;3.00;;
14903;SDS011;7543;53.148;8.234;2023-11-19T06:45:00;16.60;;;3.30;;
14903;SDS011;7543;53.148;8.234;2023-11-19T06:47:28;19.70;;;3.90;;
14903;SDS011;7543;53.148;8.234;2023-11-19T06:49:57;11.87;;;3.33;;
14903;SDS011;7543;53.148;8.234;2023-11-19T06:52:25;13.13;;;3.43;;
14903;SDS011;7543;53.148;8.234;2023-11-19T06:54:55;18.90;;;3.80;;
14903;SDS011;7543;53.148;8.234;2023-11-19T06:57:23;16.93;;;3.37;;
14903;SDS011;7543;53.148;8.234;2023-11-19T06:59:52;17.43;;;3.33;;
14903;SDS011;7543;53.148;8.234;2023-11-19T07:02:20;15.97;;;3.47;;
14903;SDS011;7543;53.148;8.234;2023-11-19T07:04:48;17.03;;;4.50;;
14903;SDS011;7543;53.148;8.234;2023-11-19T07:07:17;16.53;;;3.87;;
14903;SDS011;7543;53.148;8.234;2023-11-19T07:09:45;20.37;;;3.63;;
14903;SDS011;7543;53.148;8.234;2023-11-19T07:12:16;20.97;;;4.10;;
14903;SDS011;7543;53.148;8.234;2023-11-19T07:14:44;13.67;;;3.13;;
14903;SDS011;7543;53.148;8.234;2023-11-19T07:17:16;16.40;;;3.83;;
14903;SDS011;7543;53.148;8.234;2023-11-19T07:19:44;26.20;;;4.10;;
14903;SDS011;7543;53.148;8.234;2023-11-19T07:22:16;20.70;;;3.53;;
14903;SDS011;7543;53.148;8.234;2023-11-19T07:24:44;17.23;;;3.97;;
14903;SDS011;7543;53.148;8.234;2023-11-19T07:27:13;15.03;;;3.27;;
14903;SDS011;7543;53.148;8.234;2023-11-19T07:29:44;16.37;;;3.90;;
14903;SDS011;7543;53.148;8.234;2023-11-19T07:32:13;23.10;;;3.90;;
14903;SDS011;7543;53.148;8.234;2023-11-19T07:34:41;22.07;;;3.97;;
14903;SDS011;7543;53.148;8.234;2023-11-19T07:37:09;16.83;;;3.03;;
14903;SDS011;7543;53.148;8.234;2023-11-19T07:39:38;25.13;;;4.73;;
14903;SDS011;7543;53.148;8.234;2023-11-19T07:42:07;18.67;;;3.50;;
14903;SDS011;7543;53.148;8.234;2023-11-19T07:44:37;19.57;;;3.93;;
14903;SDS011;7543;53.148;8.234;2023-11-19T07:47:06;21.83;;;3.70;;
14903;SDS011;7543;53.148;8.234;2023-11-19T07:49:35;17.37;;;3.60;;
14903;SDS011;7543;53.148;8.234;2023-11-19T07:52:03;19.83;;;3.27;;
14903;SDS011;7543;53.148;8.234;2023-11-19T07:54:32;19.47;;;3.40;;
14903;SDS011;7543;53.148;8.234;2023-11-19T07:57:00;24.17;;;4.20;;
14903;SDS011;7543;53.148;8.234;2023-11-19T07:59:29;13.40;;;3.20;;
14903;SDS011;7543;53.148;8.234;2023-11-19T08:01:57;16.57;;;3.13;;
14903;SDS011;7543;53.148;8.234;2023-11-19T08:04:27;25.30;;;4.13;;
14903;SDS011;7543;53.148;8.234;2023-11-19T08:06:55;16.20;;;3.50;;
14903;SDS011;7543;53.148;8.234;2023-11-19T08:09:23;21.33;;;3.87;;
14903;SDS011;7543;53.148;8.234;2023-11-19T08:11:52;22.27;;;3.70;;
14903;SDS011;7543;53.148;8.234;2023-11-19T08:14:21;18.70;;;3.60;;
14903;SDS011;7543;53.148;8.234;2023-11-19T08:16:51;20.90;;;4.03;;
14903;SDS011;7543;53.148;8.234;2023-11-19T08:19:20;19.73;;;3.80;;
14903;SDS011;7543;53.148;8.234;2023-11-19T08:21:49;17.80;;;3.73;;
14903;SDS011;7543;53.148;8.234;2023-11-19T08:24:18;21.97;;;3.03;;
14903;SDS011;7543;53.148;8.234;2023-11-19T08:26:47;15.80;;;3.20;;
14903;SDS011;7543;53.148;8.234;2023-11-19T08:29:15;16.43;;;3.03;;
14903;SDS011;7543;53.148;8.234;2023-11-19T08:31:43;20.97;;;3.57;;
14903;SDS011;7543;53.148;8.234;2023-11-19T08:34:12;20.30;;;3.40;;
14903;SDS011;7543;53.148;8.234;2023-11-19T08:36:40;18.23;;;3.43;;
14903;SDS011;7543;53.148;8.234;2023-11-19T08:39:10;19.20;;;3.50;;
14903;SDS011;7543;53.148;8.234;2023-11-19T08:41:40;17.80;;;3.97;;
14903;SDS011;7543;53.148;8.234;2023-11-19T08:44:09;20.83;;;3.33;;
14903;SDS011;7543;53.148;8.234;2023-11-19T08:46:37;14.23;;;3.40;;
14903;SDS011;7543;53.148;8.234;2023-11-19T08:49:06;15.53;;;3.40;;
14903;SDS011;7543;53.148;8.234;2023-11-19T08:51:35;16.53;;;3.30;;
14903;SDS011;7543;53.148;8.234;2023-11-19T08:54:03;18.07;;;3.73;;
14903;SDS011;7543;53.148;8.234;2023-11-19T08:56:34;14.10;;;3.40;;
14903;SDS011;7543;53.148;8.234;2023-11-19T08:59:02;16.00;;;3.70;;
14903;SDS011;7543;53.148;8.234;2023-11-19T09:01:31;24.10;;;3.30;;
14903;SDS011;7543;53.148;8.234;2023-11-19T09:03:59;22.63;;;3.93;;
14903;SDS011;7543;53.148;8.234;2023-11-19T09:06:27;15.07;;;3.30;;
14903;SDS011;7543;53.148;8.234;2023-11-19T09:08:56;20.10;;;3.83;;
14903;SDS011;7543;53.148;8.234;2023-11-19T09:11:27;15.53;;;3.53;;
14903;SDS011;7543;53.148;8.234;2023-11-19T09:13:57;14.93;;;3.40;;
14903;SDS011;7543;53.148;8.234;2023-11-19T09:16:26;17.87;;;2.83;;
14903;SDS011;7543;53.148;8.234;2023-11-19T09:18:54;23.40;;;3.37;;
14903;SDS011;7543;53.148;8.234;2023-11-19T09:21:23;21.30;;;3.60;;
14903;SDS011;7543;53.148;8.234;2023-11-19T09:23:51;16.73;;;3.27;;
14903;SDS011;7543;53.148;8.234;2023-11-19T09:26:20;18.87;;;3.77;;
14903;SDS011;7543;53.148;8.234;2023-11-19T09:28:49;21.77;;;3.67;;
14903;SDS011;7543;53.148;8.234;2023-11-19T09:31:19;26.40;;;4.27;;
14903;SDS011;7543;53.148;8.234;2023-11-19T09:33:47;15.60;;;3.67;;
14903;SDS011;7543;53.148;8.234;2023-11-19T09:36:15;21.97;;;3.43;;
14903;SDS011;7543;53.148;8.234;2023-11-19T09:38:45;21.23;;;3.87;;
14903;SDS011;7543;53.148;8.234;2023-11-19T09:41:14;23.43;;;3.70;;
14903;SDS011;7543;53.148;8.234;2023-11-19T09:43:43;19.10;;;4.03;;
14903;SDS011;7543;53.148;8.234;2023-11-19T09:46:14;17.40;;;3.00;;
14903;SDS011;7543;53.148;8.234;2023-11-19T09:48:44;19.47;;;3.30;;
14903;SDS011;7543;53.148;8.234;2023-11-19T09:51:14;15.40;;;3.07;;
14903;SDS011;7543;53.148;8.234;2023-11-19T09:53:43;11.87;;;3.03;;
14903;SDS011;7543;53.148;8.234;2023-11-19T09:56:11;22.00;;;3.33;;
14903;SDS011;7543;53.148;8.234;2023-11-19T09:58:40;20.73;;;3.70;;
14903;SDS011;7543;53.148;8.234;2023-11-19T10:01:09;21.20;;;4.30;;
14903;SDS011;7543;53.148;8.234;2023-11-19T10:03:39;18.17;;;3.07;;
14903;SDS011;7543;53.148;8.234;2023-11-19T10:06:09;20.50;;;3.43;;
14903;SDS011;7543;53.148;8.234;2023-11-19T10:08:38;17.40;;;3.90;;
14903;SDS011;7543;53.148;8.234;2023-11-19T10:11:07;15.17;;;3.53;;
14903;SDS011;7543;53.148;8.234;2023-11-19T10:13:37;15.40;;;3.67;;
14903;SDS011;7543;53.148;8.234;2023-11-19T10:16:07;23.27;;;3.80;;
14903;SDS011;7543;53.148;8.234;2023-11-19T10:18:38;21.93;;;4.00;;
14903;SDS011;7543;53.148;8.234;2023-11-19T10:21:13;18.40;;;3.20;;
14903;SDS011;7543;53.148;8.234;2023-11-19T10:23:50;21.13;;;4.13;;
14903;SDS011;7543;53.148;8.234;2023-11-19T10:26:20;22.30;;;3.20;;
14903;SDS011;7543;53.148;8.234;2023-11-19T10:28:49;18.93;;;3.63;;
14903;SDS011;7543;53.148;8.234;2023-11-19T10:31:18;20.27;;;3.93;;
14903;SDS011;7543;53.148;8.234;2023-11-19T10:33:49;23.80;;;4.10;;
14903;SDS011;7543;53.148;8.234;2023-11-19T10:36:19;19.10;;;3.73;;
14903;SDS011;7543;53.148;8.234;2023-11-19T10:38:51;19.20;;;3.40;;
14903;SDS011;7543;53.148;8.234;2023-11-19T10:41:27;23.50;;;3.57;;
14903;SDS011;7543;53.148;8.234;2023-11-19T10:43:56;16.33;;;3.63;;
14903;SDS011;7543;53.148;8.234;2023-11-19T10:46:36;21.10;;;3.93;;
14903;SDS011;7543;53.148;8.234;2023-11-19T10:49:04;16.00;;;2.60;;
14903;SDS011;7543;53.148;8.234;2023-11-19T10:51:35;20.17;;;3.67;;
14903;SDS011;7543;53.148;8.234;2023-11-19T10:54:03;22.20;;;3.53;;
14903;SDS011;7543;53.148;8.234;2023-11-19T10:56:33;16.63;;;3.27;;
14903;SDS011;7543;53.148;8.234;2023-11-19T10:59:02;19.27;;;3.43;;
14903;SDS011;7543;53.148;8.234;2023-11-19T11:01:34;19.53;;;4.13;;
14903;SDS011;7543;53.148;8.234;2023-11-19T11:04:10;22.77;;;3.63;;
14903;SDS011;7543;53.148;8.234;2023-11-19T11:06:43;13.50;;;3.13;;
14903;SDS011;7543;53.148;8.234;2023-11-19T11:09:11;16.17;;;3.13;;
14903;SDS011;7543;53.148;8.234;2023-11-19T11:11:42;17.63;;;3.93;;
14903;SDS011;7543;53.148;8.234;2023-11-19T11:14:14;14.90;;;3.13;;
14903;SDS011;7543;53.148;8.234;2023-11-19T11:16:44;16.30;;;3.50;;
14903;SDS011;7543;53.148;8.234;2023-11-19T11:19:14;18.50;;;4.40;;
14903;SDS011;7543;53.148;8.234;2023-11-19T11:21:45;14.40;;;2.70;;
14903;SDS011;7543;53.148;8.234;2023-11-19T11:24:29;19.67;;;3.93;;
14903;SDS011;7543;53.148;8.234;2023-11-19T11:27:19;20.40;;;3.80;;
14903;SDS011;7543;53.148;8.234;2023-11-19T11:30:07;29.23;;;4.13;;
14903;SDS011;7543;53.148;8.234;2023-11-19T11:32:43;14.53;;;3.37;;
14903;SDS011;7543;53.148;8.234;2023-11-19T11:35:21;16.60;;;3.47;;
14903;SDS011;7543;53.148;8.234;2023-11-19T11:38:00;23.70;;;3.37;;
14903;SDS011;7543;53.148;8.234;2023-11-19T11:40:33;22.00;;;3.37;;
14903;SDS011;7543;53.148;8.234;2023-11-19T11:43:04;15.83;;;3.13;;
14903;SDS011;7543;53.148;8.234;2023-11-19T11:46:12;19.90;;;4.00;;
14903;SDS011;7543;53.148;8.234;2023-11-19T11:49:24;15.47;;;3.63;;
14903;SDS011;7543;53.148;8.234;2023-11-19T11:52:00;16.63;;;2.87;;
14903;SDS011;7543;53.148;8.234;2023-11-19T11:54:30;20.10;;;3.53;;
14903;SDS011;7543;53.148;8.234;2023-11-19T11:59:47;15.37;;;3.27;;
14903;SDS011;7543;53.148;8.234;2023-11-19T12:02:17;19.10;;;3.73;;
14903;SDS011;7543;53.148;8.234;2023-11-19T12:04:48;17.90;;;4.07;;
14903;SDS011;7543;53.148;8.234;2023-11-19T12:07:18;15.33;;;4.03;;
14903;SDS011;7543;53.148;8.234;2023-11-19T12:09:48;18.77;;;3.23;;
14903;SDS011;7543;53.148;8.234;2023-11-19T12:12:22;18.20;;;3.50;;
14903;SDS011;7543;53.148;8.234;2023-11-19T12:15:02;23.87;;;3.47;;
14903;SDS011;7543;53.148;8.234;2023-11-19T12:17:46;16.53;;;2.87;;
14903;SDS011;7543;53.148;8.234;2023-11-19T12:20:17;16.30;;;3.27;;
14903;SDS011;7543;53.148;8.234;2023-11-19T12:22:47;11.50;;;2.80;;
14903;SDS011;7543;53.148;8.234;2023-11-19T12:25:17;14.17;;;2.90;;
14903;SDS011;7543;53.148;8.234;2023-11-19T12:27:47;16.30;;;2.40;;
14903;SDS011;7543;53.148;8.234;2023-11-19T12:30:21;11.60;;;2.40;;
14903;SDS011;7543;53.148;8.234;2023-11-19T12:32:52;12.43;;;2.60;;
14903;SDS011;7543;53.148;8.234;2023-11-19T12:35:22;8.03;;;2.20;;
14903;SDS011;7543;53.148;8.234;2023-11-19T12:37:51;11.00;;;2.43;;
14903;SDS011;7543;53.148;8.234;2023-11-19T12:40:20;10.50;;;2.10;;
14903;SDS011;7543;53.148;8.234;2023-11-19T12:42:50;7.80;;;2.10;;
14903;SDS011;7543;53.148;8.234;2023-11-19T12:45:19;10.63;;;2.43;;
14903;SDS011;7543;53.148;8.234;2023-11-19T12:47:48;7.17;;;1.87;;
14903;SDS011;7543;53.148;8.234;2023-11-19T12:50:20;5.73;;;1.30;;
14903;SDS011;7543;53.148;8.234;2023-11-19T12:52:55;9.77;;;1.80;;
14903;SDS011;7543;53.148;8.234;2023-11-19T12:55:24;5.90;;;1.40;;
14903;SDS011;7543;53.148;8.234;2023-11-19T12:57:53;7.13;;;1.47;;
14903;SDS011;7543;53.148;8.234;2023-11-19T13:00:22;6.67;;;1.50;;
14903;SDS011;7543;53.148;8.234;2023-11-19T13:02:51;4.13;;;1.20;;
14903;SDS011;7543;53.148;8.234;2023-11-19T13:05:23;5.43;;;1.70;;
14903;SDS011;7543;53.148;8.234;2023-11-19T13:08:00;5.87;;;1.10;;
14903;SDS011;7543;53.148;8.234;2023-11-19T13:10:29;7.43;;;1.67;;
14903;SDS011;7543;53.148;8.234;2023-11-19T13:13:02;4.13;;;1.40;;
14903;SDS011;7543;53.148;8.234;2023-11-19T13:15:31;6.27;;;1.63;;
14903;SDS011;7543;53.148;8.234;2023-11-19T13:18:00;7.90;;;1.70;;
14903;SDS011;7543;53.148;8.234;2023-11-19T13:20:30;8.00;;;1.60;;
14903;SDS011;7543;53.148;8.234;2023-11-19T13:23:00;9.30;;;1.57;;
14903;SDS011;7543;53.148;8.234;2023-11-19T13:25:29;7.87;;;1.43;;
14903;SDS011;7543;53.148;8.234;2023-11-19T13:27:58;7.70;;;1.77;;
14903;SDS011;7543;53.148;8.234;2023-11-19T13:30:27;9.40;;;2.27;;
14903;SDS011;7543;53.148;8.234;2023-11-19T13:32:56;9.27;;;2.00;;
14903;SDS011;7543;53.148;8.234;2023-11-19T13:35:24;7.60;;;1.50;;
14903;SDS011;7543;53.148;8.234;2023-11-19T13:37:55;8.23;;;2.27;;
14903;SDS011;7543;53.148;8.234;2023-11-19T13:40:24;11.60;;;2.03;;
14903;SDS011;7543;53.148;8.234;2023-11-19T13:42:52;12.67;;;2.87;;
14903;SDS011;7543;53.148;8.234;2023-11-19T13:45:21;14.50;;;3.10;;
14903;SDS011;7543;53.148;8.234;2023-11-19T13:47:49;10.53;;;1.93;;
14903;SDS011;7543;53.148;8.234;2023-11-19T13:50:17;10.53;;;2.37;;
14903;SDS011;7543;53.148;8.234;2023-11-19T13:52:46;12.93;;;2.47;;
14903;SDS011;7543;53.148;8.234;2023-11-19T13:55:16;15.10;;;2.83;;
14903;SDS011;7543;53.148;8.234;2023-11-19T13:57:45;11.47;;;2.80;;
14903;SDS011;7543;53.148;8.234;2023-11-19T14:00:15;14.70;;;3.13;;
14903;SDS011;7543;53.148;8.234;2023-11-19T14:02:45;14.47;;;2.50;;
14903;SDS011;7543;53.148;8.234;2023-11-19T14:05:16;13.00;;;2.93;;
14903;SDS011;7543;53.148;8.234;2023-11-19T14:07:44;11.03;;;2.30;;
14903;SDS011;7543;53.148;8.234;2023-11-19T14:10:16;13.30;;;2.33;;
14903;SDS011;7543;53.148;8.234;2023-11-19T14:12:45;16.00;;;2.73;;
14903;SDS011;7543;53.148;8.234;2023-11-19T14:15:13;13.33;;;2.63;;
14903;SDS011;7543;53.148;8.234;2023-11-19T14:17:43;13.37;;;2.30;;
14903;SDS011;7543;53.148;8.234;2023-11-19T14:20:12;18.53;;;2.37;;
14903;SDS011;7543;53.148;8.234;2023-11-19T14:22:40;8.27;;;2.13;;
14903;SDS011;7543;53.148;8.234;2023-11-19T14:25:09;10.43;;;2.23;;
14903;SDS011;7543;53.148;8.234;2023-11-19T14:27:40;12.47;;;2.53;;
14903;SDS011;7543;53.148;8.234;2023-11-19T14:30:09;9.57;;;2.00;;
14903;SDS011;7543;53.148;8.234;2023-11-19T14:32:40;11.10;;;2.27;;
14903;SDS011;7543;53.148;8.234;2023-11-19T14:35:11;7.77;;;1.97;;
14903;SDS011;7543;53.148;8.234;2023-11-19T14:37:39;11.10;;;2.17;;
14903;SDS011;7543;53.148;8.234;2023-11-19T14:40:07;10.63;;;2.67;;
14903;SDS011;7543;53.148;8.234;2023-11-19T14:42:38;8.20;;;2.03;;
14903;SDS011;7543;53.148;8.234;2023-11-19T14:45:08;10.67;;;2.10;;
14903;SDS011;7543;53.148;8.234;2023-11-19T14:47:38;12.63;;;2.23;;
14903;SDS011;7543;53.148;8.234;2023-11-19T14:50:07;9.90;;;2.00;;
14903;SDS011;7543;53.148;8.234;2023-11-19T14:52:35;11.80;;;2.17;;
14903;SDS011;7543;53.148;8.234;2023-11-19T14:55:04;9.47;;;1.90;;
14903;SDS011;7543;53.148;8.234;2023-11-19T14:57:33;13.30;;;2.07;;
14903;SDS011;7543;53.148;8.234;2023-11-19T15:00:04;8.43;;;2.03;;
14903;SDS011;7543;53.148;8.234;2023-11-19T15:02:40;11.80;;;2.37;;
14903;SDS011;7543;53.148;8.234;2023-11-19T15:05:08;7.23;;;2.27;;
14903;SDS011;7543;53.148;8.234;2023-11-19T15:07:37;8.47;;;2.23;;
14903;SDS011;7543;53.148;8.234;2023-11-19T15:10:07;11.87;;;2.90;;
14903;SDS011;7543;53.148;8.234;2023-11-19T15:12:37;17.23;;;2.57;;